createdAt,value
2019-05-07T00:02:04.755Z,11.70
2019-05-07T00:12:06.698Z,11.80
2019-05-07T00:22:08.774Z,11.08
2019-05-07T00:32:12.104Z,12.37
2019-05-07T00:42:14.308Z,11.75
2019-05-07T00:52:16.304Z,11.87
2019-05-07T01:02:18.307Z,10.80
2019-05-07T01:12:22.218Z,11.73
2019-05-07T01:22:24.047Z,11.68
2019-05-07T01:32:25.954Z,12.03
2019-05-07T01:42:27.954Z,10.88
2019-05-07T01:52:29.987Z,11.77
2019-05-07T02:02:33.122Z,10.67
2019-05-07T02:12:35.122Z,11.70
2019-05-07T02:22:37.098Z,12.50
2019-05-07T02:32:39.076Z,13.30
2019-05-07T02:42:44.078Z,12.47
2019-05-07T02:52:44.894Z,12.88
2019-05-07T03:02:46.865Z,12.53
2019-05-07T03:12:48.905Z,13.27
2019-05-07T03:22:53.669Z,14.60
2019-05-07T03:32:56.171Z,14.00
2019-05-07T03:43:01.608Z,13.53
2019-05-07T03:53:03.009Z,12.03
2019-05-07T04:13:06.632Z,13.53
2019-05-07T04:23:08.635Z,13.63
2019-05-07T04:33:13.068Z,16.50
2019-05-07T04:43:14.393Z,15.78
2019-05-07T04:53:16.448Z,19.07
2019-05-07T05:03:18.493Z,19.00
2019-05-07T05:13:23.244Z,16.97
2019-05-07T05:23:24.351Z,17.55
2019-05-07T05:33:26.364Z,20.63
2019-05-07T05:43:28.325Z,23.53
2019-05-07T05:53:32.546Z,28.93
2019-05-07T06:03:34.146Z,24.55
2019-05-07T06:13:36.146Z,24.23
2019-05-07T06:23:38.135Z,24.60
2019-05-07T06:33:40.063Z,25.17
2019-05-07T06:43:42.272Z,21.40
2019-05-07T06:53:44.350Z,18.50
2019-05-07T07:03:46.323Z,21.27
2019-05-07T07:13:48.774Z,22.20
2019-05-07T07:23:52.415Z,21.53
2019-05-07T07:33:54.416Z,19.57
2019-05-07T07:43:56.418Z,20.80
2019-05-07T07:53:58.388Z,21.20
2019-05-07T08:04:02.752Z,21.30
2019-05-07T08:14:05.052Z,21.87
2019-05-07T08:34:08.534Z,18.87
2019-05-07T08:44:14.537Z,16.13
2019-05-07T08:54:14.353Z,9.90
2019-05-07T09:04:16.361Z,15.03
2019-05-07T09:14:18.375Z,13.57
2019-05-07T09:24:22.193Z,14.00
2019-05-07T09:34:24.119Z,14.33
2019-05-07T09:44:26.155Z,20.43
2019-05-07T09:54:28.316Z,18.27
2019-05-07T10:04:32.587Z,16.17
2019-05-07T10:14:34.399Z,13.28
2019-05-07T10:24:36.467Z,10.88
2019-05-07T10:34:38.825Z,13.07
2019-05-07T10:44:43.170Z,11.25
2019-05-07T10:54:56.868Z,9.35
2019-05-07T11:04:48.678Z,9.18
2019-05-07T11:14:51.702Z,9.67
2019-05-07T11:24:53.752Z,9.45
2019-05-07T11:34:56.509Z,10.23
2019-05-07T11:44:58.652Z,9.78
2019-05-07T11:55:03.013Z,13.60
2019-05-07T12:05:04.585Z,10.75
2019-05-07T12:15:06.652Z,10.55
2019-05-07T12:25:08.611Z,8.98
2019-05-07T12:35:12.751Z,7.50
2019-05-07T12:45:14.872Z,8.13
2019-05-07T12:55:16.868Z,7.45
2019-05-07T13:05:18.828Z,8.00
2019-05-07T13:15:26.977Z,7.87
2019-05-07T13:25:28.184Z,8.35
2019-05-07T13:35:28.591Z,8.38
2019-05-07T13:45:31.771Z,8.45
2019-05-07T13:55:34.687Z,9.03
2019-05-07T14:05:36.838Z,9.28
2019-05-07T14:15:38.807Z,9.17
2019-05-07T14:25:41.916Z,9.43
2019-05-07T14:35:44.034Z,9.28
2019-05-07T14:45:45.987Z,8.90
2019-05-07T14:55:48.003Z,8.28
2019-05-07T15:05:49.932Z,7.85
2019-05-07T15:15:52.519Z,7.03
2019-05-07T15:25:55.912Z,7.55
2019-05-07T15:35:57.891Z,7.95
2019-05-07T15:46:01.837Z,6.20
2019-05-07T15:56:03.847Z,7.58
2019-05-07T16:06:06.157Z,7.30
2019-05-07T16:26:09.484Z,19.70
2019-05-07T16:36:12.604Z,18.10
2019-05-07T16:46:16.467Z,10.82
2019-05-07T16:56:18.473Z,8.25
2019-05-07T17:06:24.770Z,8.50
2019-05-07T17:16:24.286Z,10.55
2019-05-07T17:26:26.339Z,12.57
2019-05-07T17:36:28.315Z,8.70
2019-05-07T17:46:32.292Z,8.27
2019-05-07T17:56:34.087Z,7.87
2019-05-07T18:06:36.074Z,6.53
2019-05-07T18:16:38.067Z,6.97
2019-05-07T18:26:42.176Z,7.33
2019-05-07T18:36:44.139Z,6.67
2019-05-07T18:46:46.135Z,6.37
2019-05-07T18:56:48.101Z,20.97
2019-05-07T19:06:51.728Z,6.53
2019-05-07T19:16:53.976Z,8.45
2019-05-07T19:26:55.931Z,7.27
2019-05-07T19:36:57.978Z,7.60
2019-05-07T19:47:01.946Z,7.63
2019-05-07T19:57:03.754Z,6.83
2019-05-07T20:07:05.844Z,6.93
2019-05-07T20:17:07.916Z,6.60
2019-05-07T20:27:09.927Z,5.23
2019-05-07T20:37:12.936Z,5.90
2019-05-07T20:47:15.170Z,6.30
2019-05-07T20:57:17.136Z,6.20
2019-05-07T21:07:19.216Z,6.90
2019-05-07T21:17:22.694Z,8.63
2019-05-07T21:27:24.947Z,7.37
2019-05-07T21:37:26.886Z,8.10
2019-05-07T21:47:28.875Z,8.18
2019-05-07T21:57:32.935Z,7.87
2019-05-07T22:07:34.606Z,7.12
2019-05-07T22:17:36.607Z,7.33
2019-05-07T22:27:38.573Z,6.30
2019-05-07T22:37:40.620Z,5.75
2019-05-07T22:47:42.759Z,7.03
2019-05-07T22:57:44.755Z,6.30
2019-05-07T23:07:46.851Z,7.73
2019-05-07T23:17:50.923Z,6.57
2019-05-07T23:27:52.874Z,5.60
2019-05-07T23:37:54.838Z,6.23
2019-05-07T23:47:56.907Z,5.70
2019-05-07T23:57:58.846Z,5.53
